sensor_id;sensor_type;location;lat;lon;timestamp;pressure;altitude;pressure_sealevel;temperature;humidity
31005;BME280;17676;52.254;4.490;2023-07-20T00:01:25;101459.81;;;17.39;100.00
31005;BME280;17676;52.254;4.490;2023-07-20T00:03:51;101456.97;;;17.34;100.00
31005;BME280;17676;52.254;4.490;2023-07-20T00:06:23;101452.25;;;17.41;100.00
31005;BME280;17676;52.254;4.490;2023-07-20T00:08:50;101454.34;;;17.39;100.00
31005;BME280;17676;52.254;4.490;2023-07-20T00:11:16;101450.56;;;17.40;100.00
31005;BME280;17676;52.254;4.490;2023-07-20T00:13:42;101449.94;;;17.38;100.00
31005;BME280;17676;52.254;4.490;2023-07-20T00:16:07;101440.78;;;17.21;100.00
31005;BME280;17676;52.254;4.490;2023-07-20T00:18:32;101452.44;;;17.28;100.00
31005;BME280;17676;52.254;4.490;2023-07-20T00:20:58;101447.44;;;17.25;100.00
31005;BME280;17676;52.254;4.490;2023-07-20T00:23:25;101452.56;;;17.21;100.00
31005;BME280;17676;52.254;4.490;2023-07-20T00:25:51;101453.84;;;17.19;100.00
31005;BME280;17676;52.254;4.490;2023-07-20T00:28:16;101450.53;;;17.17;100.00
31005;BME280;17676;52.254;4.490;2023-07-20T00:30:42;101452.91;;;17.25;100.00
31005;BME280;17676;52.254;4.490;2023-07-20T00:33:10;101443.75;;;17.19;100.00
31005;BME280;17676;52.254;4.490;2023-07-20T00:35:37;101450.88;;;17.20;100.00
31005;BME280;17676;52.254;4.490;2023-07-20T00:38:03;101455.03;;;17.23;100.00
31005;BME280;17676;52.254;4.490;2023-07-20T00:40:28;101446.72;;;17.18;100.00
31005;BME280;17676;52.254;4.490;2023-07-20T00:42:54;101447.91;;;17.22;100.00
31005;BME280;17676;52.254;4.490;2023-07-20T00:45:19;101446.72;;;17.18;100.00
31005;BME280;17676;52.254;4.490;2023-07-20T00:47:45;101446.25;;;17.21;100.00
31005;BME280;17676;52.254;4.490;2023-07-20T00:50:10;101444.22;;;17.16;100.00
31005;BME280;17676;52.254;4.490;2023-07-20T00:52:37;101446.94;;;17.05;100.00
31005;BME280;17676;52.254;4.490;2023-07-20T00:55:04;101439.66;;;16.99;100.00
31005;BME280;17676;52.254;4.490;2023-07-20T00:57:30;101436.94;;;16.99;100.00
31005;BME280;17676;52.254;4.490;2023-07-20T00:59:55;101442.91;;;16.96;100.00
31005;BME280;17676;52.254;4.490;2023-07-20T01:02:21;101440.75;;;16.98;100.00
31005;BME280;17676;52.254;4.490;2023-07-20T01:04:47;101445.63;;;16.96;100.00
31005;BME280;17676;52.254;4.490;2023-07-20T01:10:18;101441.09;;;16.90;100.00
31005;BME280;17676;52.254;4.490;2023-07-20T01:12:52;101438.97;;;16.92;100.00
31005;BME280;17676;52.254;4.490;2023-07-20T01:15:18;101436.94;;;16.99;100.00
31005;BME280;17676;52.254;4.490;2023-07-20T01:17:43;101433.38;;;16.98;100.00
31005;BME280;17676;52.254;4.490;2023-07-20T01:20:12;101445.88;;;17.06;100.00
31005;BME280;17676;52.254;4.490;2023-07-20T01:31:20;101446.22;;;16.98;100.00
31005;BME280;17676;52.254;4.490;2023-07-20T01:33:47;101442.50;;;16.92;100.00
31005;BME280;17676;52.254;4.490;2023-07-20T01:36:13;101462.50;;;16.93;100.00
31005;BME280;17676;52.254;4.490;2023-07-20T01:38:40;101437.50;;;16.78;100.00
31005;BME280;17676;52.254;4.490;2023-07-20T01:41:06;101450.94;;;16.91;100.00
31005;BME280;17676;52.254;4.490;2023-07-20T01:43:31;101448.09;;;16.86;100.00
31005;BME280;17676;52.254;4.490;2023-07-20T01:45:57;101448.72;;;16.88;100.00
31005;BME280;17676;52.254;4.490;2023-07-20T01:48:22;101466.16;;;16.87;100.00
31005;BME280;17676;52.254;4.490;2023-07-20T01:50:48;101452.41;;;16.93;100.00
31005;BME280;17676;52.254;4.490;2023-07-20T01:53:13;101450.50;;;16.94;100.00
31005;BME280;17676;52.254;4.490;2023-07-20T01:55:38;101447.28;;;16.97;100.00
31005;BME280;17676;52.254;4.490;2023-07-20T01:58:04;101453.97;;;17.01;100.00
31005;BME280;17676;52.254;4.490;2023-07-20T02:00:31;101456.13;;;17.10;100.00
31005;BME280;17676;52.254;4.490;2023-07-20T02:02:57;101453.50;;;17.04;100.00
31005;BME280;17676;52.254;4.490;2023-07-20T02:05:22;101443.25;;;16.99;100.00
31005;BME280;17676;52.254;4.490;2023-07-20T02:07:47;101452.16;;;16.95;100.00
31005;BME280;17676;52.254;4.490;2023-07-20T02:10:13;101456.06;;;16.87;100.00
31005;BME280;17676;52.254;4.490;2023-07-20T02:12:38;101459.88;;;16.86;100.00
31005;BME280;17676;52.254;4.490;2023-07-20T02:15:04;101448.56;;;16.83;100.00
31005;BME280;17676;52.254;4.490;2023-07-20T02:17:29;101453.66;;;16.79;100.00
31005;BME280;17676;52.254;4.490;2023-07-20T02:19:58;101452.13;;;16.72;100.00
31005;BME280;17676;52.254;4.490;2023-07-20T02:22:23;101449.22;;;16.67;100.00
31005;BME280;17676;52.254;4.490;2023-07-20T02:24:49;101453.78;;;16.73;100.00
31005;BME280;17676;52.254;4.490;2023-07-20T02:27:15;101457.28;;;16.62;100.00
31005;BME280;17676;52.254;4.490;2023-07-20T02:29:41;101453.03;;;16.66;100.00
31005;BME280;17676;52.254;4.490;2023-07-20T02:32:07;101448.50;;;16.60;100.00
31005;BME280;17676;52.254;4.490;2023-07-20T02:34:33;101454.88;;;16.54;100.00
31005;BME280;17676;52.254;4.490;2023-07-20T02:36:59;101459.06;;;16.56;100.00
31005;BME280;17676;52.254;4.490;2023-07-20T02:39:27;101460.69;;;16.46;100.00
31005;BME280;17676;52.254;4.490;2023-07-20T02:41:52;101445.97;;;16.47;100.00
31005;BME280;17676;52.254;4.490;2023-07-20T02:44:18;101450.03;;;16.38;100.00
31005;BME280;17676;52.254;4.490;2023-07-20T02:46:43;101432.94;;;16.31;100.00
31005;BME280;17676;52.254;4.490;2023-07-20T02:49:08;101445.34;;;16.45;100.00
31005;BME280;17676;52.254;4.490;2023-07-20T02:51:34;101463.41;;;16.46;100.00
31005;BME280;17676;52.254;4.490;2023-07-20T02:54:00;101459.47;;;16.42;100.00
31005;BME280;17676;52.254;4.490;2023-07-20T02:56:26;101453.09;;;16.30;100.00
31005;BME280;17676;52.254;4.490;2023-07-20T02:58:52;101458.44;;;16.25;100.00
31005;BME280;17676;52.254;4.490;2023-07-20T03:01:17;101456.38;;;16.20;100.00
31005;BME280;17676;52.254;4.490;2023-07-20T03:03:43;101460.63;;;16.16;100.00
31005;BME280;17676;52.254;4.490;2023-07-20T03:06:12;101462.78;;;16.14;100.00
31005;BME280;17676;52.254;4.490;2023-07-20T03:08:38;101465.50;;;16.14;100.00
31005;BME280;17676;52.254;4.490;2023-07-20T03:11:03;101469.56;;;16.23;100.00
31005;BME280;17676;52.254;4.490;2023-07-20T03:13:29;101467.16;;;16.33;100.00
31005;BME280;17676;52.254;4.490;2023-07-20T03:15:54;101465.00;;;16.35;100.00
31005;BME280;17676;52.254;4.490;2023-07-20T03:18:19;101469.16;;;16.38;100.00
31005;BME280;17676;52.254;4.490;2023-07-20T03:20:45;101477.06;;;16.46;100.00
31005;BME280;17676;52.254;4.490;2023-07-20T03:23:11;101482.22;;;16.54;100.00
31005;BME280;17676;52.254;4.490;2023-07-20T03:25:37;101482.38;;;16.59;100.00
31005;BME280;17676;52.254;4.490;2023-07-20T03:28:03;101485.84;;;16.66;100.00
31005;BME280;17676;52.254;4.490;2023-07-20T03:30:29;101484.53;;;16.68;100.00
31005;BME280;17676;52.254;4.490;2023-07-20T03:32:54;101477.19;;;16.69;100.00
31005;BME280;17676;52.254;4.490;2023-07-20T03:35:20;101477.75;;;16.71;100.00
31005;BME280;17676;52.254;4.490;2023-07-20T03:37:45;101479.69;;;16.70;100.00
31005;BME280;17676;52.254;4.490;2023-07-20T03:40:11;101470.97;;;16.62;100.00
31005;BME280;17676;52.254;4.490;2023-07-20T03:42:36;101488.34;;;16.67;100.00
31005;BME280;17676;52.254;4.490;2023-07-20T03:45:02;101491.78;;;16.63;100.00
31005;BME280;17676;52.254;4.490;2023-07-20T03:47:28;101492.97;;;16.67;100.00
31005;BME280;17676;52.254;4.490;2023-07-20T03:49:53;101496.31;;;16.69;100.00
31005;BME280;17676;52.254;4.490;2023-07-20T03:52:19;101498.81;;;16.70;100.00
31005;BME280;17676;52.254;4.490;2023-07-20T03:54:44;101491.69;;;16.69;100.00
31005;BME280;17676;52.254;4.490;2023-07-20T03:57:10;101489.53;;;16.71;100.00
31005;BME280;17676;52.254;4.490;2023-07-20T03:59:37;101501.00;;;16.80;100.00
31005;BME280;17676;52.254;4.490;2023-07-20T04:02:03;101508.72;;;16.83;100.00
31005;BME280;17676;52.254;4.490;2023-07-20T04:04:30;101502.78;;;16.86;100.00
31005;BME280;17676;52.254;4.490;2023-07-20T04:06:55;101498.50;;;16.90;100.00
31005;BME280;17676;52.254;4.490;2023-07-20T04:09:21;101483.22;;;16.71;100.00
31005;BME280;17676;52.254;4.490;2023-07-20T04:11:46;101501.13;;;16.85;100.00
31005;BME280;17676;52.254;4.490;2023-07-20T04:14:11;101495.56;;;16.91;100.00
31005;BME280;17676;52.254;4.490;2023-07-20T04:16:37;101496.66;;;17.02;100.00
31005;BME280;17676;52.254;4.490;2023-07-20T04:19:02;101489.06;;;17.04;100.00
31005;BME280;17676;52.254;4.490;2023-07-20T04:21:28;101494.53;;;17.04;100.00
31005;BME280;17676;52.254;4.490;2023-07-20T04:23:53;101501.66;;;17.05;100.00
31005;BME280;17676;52.254;4.490;2023-07-20T04:26:19;101502.50;;;17.05;100.00
31005;BME280;17676;52.254;4.490;2023-07-20T04:28:44;101498.31;;;17.03;100.00
31005;BME280;17676;52.254;4.490;2023-07-20T04:31:14;101503.69;;;17.09;100.00
31005;BME280;17676;52.254;4.490;2023-07-20T04:33:40;101498.78;;;17.00;100.00
31005;BME280;17676;52.254;4.490;2023-07-20T04:36:05;101502.56;;;16.99;100.00
31005;BME280;17676;52.254;4.490;2023-07-20T04:38:31;101504.63;;;17.03;100.00
31005;BME280;17676;52.254;4.490;2023-07-20T04:40:56;101502.56;;;16.99;100.00
31005;BME280;17676;52.254;4.490;2023-07-20T04:43:22;101503.66;;;16.98;100.00
31005;BME280;17676;52.254;4.490;2023-07-20T04:45:47;101504.38;;;16.93;100.00
31005;BME280;17676;52.254;4.490;2023-07-20T04:48:15;101506.25;;;16.93;100.00
31005;BME280;17676;52.254;4.490;2023-07-20T04:50:41;101512.31;;;16.95;100.00
31005;BME280;17676;52.254;4.490;2023-07-20T04:53:08;101509.47;;;16.90;100.00
31005;BME280;17676;52.254;4.490;2023-07-20T04:55:35;101517.06;;;16.88;100.00
31005;BME280;17676;52.254;4.490;2023-07-20T04:58:02;101515.25;;;16.82;100.00
31005;BME280;17676;52.254;4.490;2023-07-20T05:00:29;101519.09;;;16.92;100.00
31005;BME280;17676;52.254;4.490;2023-07-20T05:02:54;101514.66;;;17.21;100.00
31005;BME280;17676;52.254;4.490;2023-07-20T05:05:20;101518.13;;;17.28;100.00
31005;BME280;17676;52.254;4.490;2023-07-20T05:07:45;101517.38;;;17.21;100.00
31005;BME280;17676;52.254;4.490;2023-07-20T05:10:11;101523.59;;;17.28;100.00
31005;BME280;17676;52.254;4.490;2023-07-20T05:12:36;101518.19;;;17.10;100.00
31005;BME280;17676;52.254;4.490;2023-07-20T05:15:02;101514.91;;;17.31;100.00
31005;BME280;17676;52.254;4.490;2023-07-20T05:17:28;101517.22;;;17.57;100.00
31005;BME280;17676;52.254;4.490;2023-07-20T05:19:54;101514.50;;;17.80;100.00
31005;BME280;17676;52.254;4.490;2023-07-20T05:22:20;101511.03;;;17.73;100.00
31005;BME280;17676;52.254;4.490;2023-07-20T05:24:45;101514.22;;;17.81;100.00
31005;BME280;17676;52.254;4.490;2023-07-20T05:27:10;101500.91;;;17.73;100.00
31005;BME280;17676;52.254;4.490;2023-07-20T05:29:36;101511.16;;;17.78;100.00
31005;BME280;17676;52.254;4.490;2023-07-20T05:32:01;101507.34;;;17.90;100.00
31005;BME280;17676;52.254;4.490;2023-07-20T05:34:28;101499.56;;;17.99;100.00
31005;BME280;17676;52.254;4.490;2023-07-20T05:36:53;101504.28;;;18.26;100.00
31005;BME280;17676;52.254;4.490;2023-07-20T05:39:19;101498.75;;;17.98;100.00
31005;BME280;17676;52.254;4.490;2023-07-20T05:41:44;101504.47;;;17.74;100.00
31005;BME280;17676;52.254;4.490;2023-07-20T05:44:09;101498.53;;;17.77;100.00
31005;BME280;17676;52.254;4.490;2023-07-20T05:46:35;101505.75;;;18.06;100.00
31005;BME280;17676;52.254;4.490;2023-07-20T05:49:00;101504.03;;;18.28;100.00
31005;BME280;17676;52.254;4.490;2023-07-20T05:51:27;101512.25;;;18.28;100.00
31005;BME280;17676;52.254;4.490;2023-07-20T05:53:52;101515.06;;;18.05;100.00
31005;BME280;17676;52.254;4.490;2023-07-20T05:56:18;101511.78;;;18.31;100.00
31005;BME280;17676;52.254;4.490;2023-07-20T05:58:43;101512.56;;;18.03;100.00
31005;BME280;17676;52.254;4.490;2023-07-20T06:01:09;101512.31;;;18.05;100.00
31005;BME280;17676;52.254;4.490;2023-07-20T06:03:34;101511.94;;;18.13;100.00
31005;BME280;17676;52.254;4.490;2023-07-20T06:06:00;101522.63;;;18.26;100.00
31005;BME280;17676;52.254;4.490;2023-07-20T06:08:28;101515.72;;;18.35;100.00
31005;BME280;17676;52.254;4.490;2023-07-20T06:10:53;101507.84;;;18.66;100.00
31005;BME280;17676;52.254;4.490;2023-07-20T06:13:18;101511.25;;;19.01;100.00
31005;BME280;17676;52.254;4.490;2023-07-20T06:15:44;101510.09;;;18.81;100.00
31005;BME280;17676;52.254;4.490;2023-07-20T06:18:09;101505.94;;;18.39;100.00
31005;BME280;17676;52.254;4.490;2023-07-20T06:20:35;101502.16;;;18.17;100.00
31005;BME280;17676;52.254;4.490;2023-07-20T06:23:00;101510.50;;;18.61;100.00
31005;BME280;17676;52.254;4.490;2023-07-20T06:25:26;101509.19;;;18.64;100.00
31005;BME280;17676;52.254;4.490;2023-07-20T06:27:51;101514.50;;;18.98;100.00
31005;BME280;17676;52.254;4.490;2023-07-20T06:30:17;101514.81;;;19.30;100.00
31005;BME280;17676;52.254;4.490;2023-07-20T06:32:43;101505.09;;;19.56;100.00
31005;BME280;17676;52.254;4.490;2023-07-20T06:35:08;101501.66;;;19.65;100.00
31005;BME280;17676;52.254;4.490;2023-07-20T06:37:34;101508.66;;;19.56;100.00
31005;BME280;17676;52.254;4.490;2023-07-20T06:40:01;101504.63;;;19.80;100.00
31005;BME280;17676;52.254;4.490;2023-07-20T06:42:26;101505.81;;;20.06;100.00
31005;BME280;17676;52.254;4.490;2023-07-20T06:44:52;101512.50;;;19.93;100.00
31005;BME280;17676;52.254;4.490;2023-07-20T06:47:17;101506.59;;;19.30;100.00
31005;BME280;17676;52.254;4.490;2023-07-20T06:49:42;101517.44;;;19.75;100.00
31005;BME280;17676;52.254;4.490;2023-07-20T06:52:08;101522.56;;;20.04;100.00
31005;BME280;17676;52.254;4.490;2023-07-20T06:54:33;101527.69;;;21.03;100.00
31005;BME280;17676;52.254;4.490;2023-07-20T06:56:59;101519.69;;;22.06;100.00
31005;BME280;17676;52.254;4.490;2023-07-20T06:59:25;101516.47;;;22.91;100.00
31005;BME280;17676;52.254;4.490;2023-07-20T07:01:50;101514.34;;;23.23;100.00
31005;BME280;17676;52.254;4.490;2023-07-20T07:04:15;101513.72;;;23.16;100.00
31005;BME280;17676;52.254;4.490;2023-07-20T07:06:41;101515.09;;;22.88;100.00
31005;BME280;17676;52.254;4.490;2023-07-20T07:09:06;101516.75;;;22.89;100.00
31005;BME280;17676;52.254;4.490;2023-07-20T07:11:33;101512.22;;;22.58;100.00
31005;BME280;17676;52.254;4.490;2023-07-20T07:13:59;101515.38;;;22.25;100.00
31005;BME280;17676;52.254;4.490;2023-07-20T07:16:24;101521.75;;;22.26;100.00
31005;BME280;17676;52.254;4.490;2023-07-20T07:18:50;101531.09;;;21.78;100.00
31005;BME280;17676;52.254;4.490;2023-07-20T07:21:16;101532.19;;;22.19;100.00
31005;BME280;17676;52.254;4.490;2023-07-20T07:23:42;101526.16;;;22.32;100.00
31005;BME280;17676;52.254;4.490;2023-07-20T07:26:09;101538.16;;;22.52;100.00
31005;BME280;17676;52.254;4.490;2023-07-20T07:28:34;101536.69;;;24.02;100.00
31005;BME280;17676;52.254;4.490;2023-07-20T07:31:00;101540.59;;;25.85;100.00
31005;BME280;17676;52.254;4.490;2023-07-20T07:33:26;101531.75;;;26.11;100.00
31005;BME280;17676;52.254;4.490;2023-07-20T07:35:52;101535.41;;;26.54;100.00
31005;BME280;17676;52.254;4.490;2023-07-20T07:38:18;101539.84;;;27.34;100.00
31005;BME280;17676;52.254;4.490;2023-07-20T07:40:44;101543.31;;;28.49;100.00
31005;BME280;17676;52.254;4.490;2023-07-20T07:43:10;101547.22;;;29.24;100.00
31005;BME280;17676;52.254;4.490;2023-07-20T07:45:35;101548.75;;;28.27;100.00
31005;BME280;17676;52.254;4.490;2023-07-20T07:48:05;101547.97;;;28.54;100.00
31005;BME280;17676;52.254;4.490;2023-07-20T07:50:31;101551.44;;;29.00;100.00
31005;BME280;17676;52.254;4.490;2023-07-20T07:52:56;101552.69;;;29.29;100.00
31005;BME280;17676;52.254;4.490;2023-07-20T07:55:22;101557.53;;;28.75;100.00
31005;BME280;17676;52.254;4.490;2023-07-20T07:57:47;101547.13;;;28.26;100.00
31005;BME280;17676;52.254;4.490;2023-07-20T08:00:13;101546.44;;;28.48;100.00
31005;BME280;17676;52.254;4.490;2023-07-20T08:02:42;101553.81;;;29.06;100.00
31005;BME280;17676;52.254;4.490;2023-07-20T08:05:09;101543.09;;;28.32;100.00
31005;BME280;17676;52.254;4.490;2023-07-20T08:07:35;101546.25;;;29.42;100.00
31005;BME280;17676;52.254;4.490;2023-07-20T08:10:00;101547.88;;;29.43;100.00
31005;BME280;17676;52.254;4.490;2023-07-20T08:12:26;101556.00;;;29.53;96.96
31005;BME280;17676;52.254;4.490;2023-07-20T08:14:52;101542.75;;;29.59;100.00
31005;BME280;17676;52.254;4.490;2023-07-20T08:17:17;101557.97;;;29.97;100.00
31005;BME280;17676;52.254;4.490;2023-07-20T08:19:43;101554.72;;;29.15;100.00
31005;BME280;17676;52.254;4.490;2023-07-20T08:22:09;101565.06;;;29.37;98.69
31005;BME280;17676;52.254;4.490;2023-07-20T08:24:38;101554.00;;;29.10;100.00
31005;BME280;17676;52.254;4.490;2023-07-20T08:27:04;101548.66;;;28.86;100.00
31005;BME280;17676;52.254;4.490;2023-07-20T08:29:30;101550.38;;;28.96;100.00
31005;BME280;17676;52.254;4.490;2023-07-20T08:31:55;101549.09;;;28.80;100.00
31005;BME280;17676;52.254;4.490;2023-07-20T08:34:21;101549.66;;;29.39;100.00
31005;BME280;17676;52.254;4.490;2023-07-20T08:36:46;101549.91;;;29.51;100.00
31005;BME280;17676;52.254;4.490;2023-07-20T08:39:12;101546.16;;;28.98;100.00
31005;BME280;17676;52.254;4.490;2023-07-20T08:41:37;101543.47;;;28.93;100.00
31005;BME280;17676;52.254;4.490;2023-07-20T08:44:05;101542.06;;;28.82;100.00
31005;BME280;17676;52.254;4.490;2023-07-20T08:46:31;101550.59;;;29.35;100.00
31005;BME280;17676;52.254;4.490;2023-07-20T08:48:57;101540.41;;;29.52;100.00
31005;BME280;17676;52.254;4.490;2023-07-20T08:51:23;101546.75;;;29.22;96.28
31005;BME280;17676;52.254;4.490;2023-07-20T08:53:51;101551.94;;;29.81;100.00
31005;BME280;17676;52.254;4.490;2023-07-20T08:56:17;101550.16;;;30.46;98.45
31005;BME280;17676;52.254;4.490;2023-07-20T08:58:45;101563.34;;;29.27;93.63
31005;BME280;17676;52.254;4.490;2023-07-20T09:01:11;101544.34;;;29.16;100.00
31005;BME280;17676;52.254;4.490;2023-07-20T09:03:36;101546.13;;;30.00;96.15
31005;BME280;17676;52.254;4.490;2023-07-20T09:06:05;101553.81;;;29.28;100.00
31005;BME280;17676;52.254;4.490;2023-07-20T09:08:31;101556.34;;;29.16;98.10
31005;BME280;17676;52.254;4.490;2023-07-20T09:10:56;101543.16;;;28.95;100.00
31005;BME280;17676;52.254;4.490;2023-07-20T09:13:22;101540.63;;;29.20;100.00
31005;BME280;17676;52.254;4.490;2023-07-20T09:15:49;101543.41;;;29.20;100.00
31005;BME280;17676;52.254;4.490;2023-07-20T09:18:25;101548.50;;;29.40;99.85
31005;BME280;17676;52.254;4.490;2023-07-20T09:20:51;101548.22;;;29.94;99.48
31005;BME280;17676;52.254;4.490;2023-07-20T09:23:16;101547.91;;;29.65;100.00
31005;BME280;17676;52.254;4.490;2023-07-20T09:25:42;101554.81;;;29.98;93.56
31005;BME280;17676;52.254;4.490;2023-07-20T09:28:07;101554.34;;;30.27;96.29
31005;BME280;17676;52.254;4.490;2023-07-20T09:30:33;101542.91;;;30.45;92.04
31005;BME280;17676;52.254;4.490;2023-07-20T09:32:59;101553.66;;;30.21;97.12
31005;BME280;17676;52.254;4.490;2023-07-20T09:35:24;101547.44;;;29.94;95.53
31005;BME280;17676;52.254;4.490;2023-07-20T09:37:58;101549.19;;;30.51;92.11
31005;BME280;17676;52.254;4.490;2023-07-20T09:40:24;101549.75;;;30.00;96.75
31005;BME280;17676;52.254;4.490;2023-07-20T09:42:52;101553.56;;;30.04;94.46
31005;BME280;17676;52.254;4.490;2023-07-20T09:45:17;101547.22;;;30.51;90.23
31005;BME280;17676;52.254;4.490;2023-07-20T09:47:43;101547.81;;;30.01;95.30
31005;BME280;17676;52.254;4.490;2023-07-20T09:50:08;101554.72;;;30.42;93.82
31005;BME280;17676;52.254;4.490;2023-07-20T09:52:42;101549.34;;;29.41;95.35
31005;BME280;17676;52.254;4.490;2023-07-20T09:55:10;101545.72;;;29.18;93.33
31005;BME280;17676;52.254;4.490;2023-07-20T09:57:37;101540.44;;;28.54;96.77
31005;BME280;17676;52.254;4.490;2023-07-20T10:00:05;101541.13;;;28.33;100.00
31005;BME280;17676;52.254;4.490;2023-07-20T10:02:41;101532.44;;;29.24;100.00
31005;BME280;17676;52.254;4.490;2023-07-20T10:05:08;101537.22;;;29.89;96.56
31005;BME280;17676;52.254;4.490;2023-07-20T10:07:36;101544.88;;;30.36;89.85
31005;BME280;17676;52.254;4.490;2023-07-20T10:10:06;101548.56;;;30.15;91.01
31005;BME280;17676;52.254;4.490;2023-07-20T10:12:34;101535.47;;;28.78;98.56
31005;BME280;17676;52.254;4.490;2023-07-20T10:15:19;101541.69;;;28.48;92.15
31005;BME280;17676;52.254;4.490;2023-07-20T10:20:50;101544.34;;;28.26;100.00
31005;BME280;17676;52.254;4.490;2023-07-20T10:23:17;101546.34;;;29.15;96.72
31005;BME280;17676;52.254;4.490;2023-07-20T10:25:42;101540.72;;;28.26;98.91
31005;BME280;17676;52.254;4.490;2023-07-20T10:28:10;101544.03;;;28.68;100.00
31005;BME280;17676;52.254;4.490;2023-07-20T10:30:37;101549.88;;;29.07;99.84
31005;BME280;17676;52.254;4.490;2023-07-20T10:33:03;101544.72;;;28.87;97.19
31005;BME280;17676;52.254;4.490;2023-07-20T10:35:29;101537.13;;;28.52;99.91
31005;BME280;17676;52.254;4.490;2023-07-20T10:38:01;101543.09;;;28.86;97.96
31005;BME280;17676;52.254;4.490;2023-07-20T10:40:33;101541.47;;;28.58;98.48
31005;BME280;17676;52.254;4.490;2023-07-20T10:43:04;101535.56;;;28.33;100.00
31005;BME280;17676;52.254;4.490;2023-07-20T10:48:21;101538.16;;;28.56;100.00
31005;BME280;17676;52.254;4.490;2023-07-20T10:51:13;101531.94;;;28.05;98.21
31005;BME280;17676;52.254;4.490;2023-07-20T10:53:39;101534.22;;;28.17;99.34
31005;BME280;17676;52.254;4.490;2023-07-20T10:56:11;101537.28;;;26.82;98.17
31005;BME280;17676;52.254;4.490;2023-07-20T10:58:38;101530.97;;;27.32;100.00
31005;BME280;17676;52.254;4.490;2023-07-20T11:01:04;101538.38;;;27.55;100.00
31005;BME280;17676;52.254;4.490;2023-07-20T11:03:36;101525.00;;;28.03;100.00
31005;BME280;17676;52.254;4.490;2023-07-20T11:09:04;101529.69;;;27.43;100.00
31005;BME280;17676;52.254;4.490;2023-07-20T11:11:32;101527.25;;;27.55;100.00
31005;BME280;17676;52.254;4.490;2023-07-20T11:14:03;101525.34;;;27.69;100.00
31005;BME280;17676;52.254;4.490;2023-07-20T11:16:43;101521.44;;;27.38;100.00
31005;BME280;17676;52.254;4.490;2023-07-20T11:21:51;101521.94;;;28.04;100.00
31005;BME280;17676;52.254;4.490;2023-07-20T11:24:17;101516.34;;;28.04;100.00
31005;BME280;17676;52.254;4.490;2023-07-20T11:26:44;101514.38;;;27.91;100.00
31005;BME280;17676;52.254;4.490;2023-07-20T11:29:10;101513.59;;;28.31;100.00
31005;BME280;17676;52.254;4.490;2023-07-20T11:31:40;101514.94;;;28.47;100.00
31005;BME280;17676;52.254;4.490;2023-07-20T11:34:07;101490.50;;;27.26;100.00
31005;BME280;17676;52.254;4.490;2023-07-20T11:36:33;101494.59;;;27.10;100.00
31005;BME280;17676;52.254;4.490;2023-07-20T11:38:59;101500.97;;;26.92;100.00
31005;BME280;17676;52.254;4.490;2023-07-20T11:41:25;101496.72;;;26.81;100.00
31005;BME280;17676;52.254;4.490;2023-07-20T11:43:51;101494.25;;;26.98;100.00
31005;BME280;17676;52.254;4.490;2023-07-20T11:46:16;101489.94;;;26.87;100.00
31005;BME280;17676;52.254;4.490;2023-07-20T11:48:42;101492.97;;;26.90;100.00
31005;BME280;17676;52.254;4.490;2023-07-20T11:51:13;101495.16;;;26.51;100.00
31005;BME280;17676;52.254;4.490;2023-07-20T11:53:40;101500.28;;;25.97;100.00
31005;BME280;17676;52.254;4.490;2023-07-20T11:56:05;101492.94;;;26.30;100.00
31005;BME280;17676;52.254;4.490;2023-07-20T11:58:31;101483.03;;;26.24;100.00
31005;BME280;17676;52.254;4.490;2023-07-20T12:00:57;101487.75;;;26.65;100.00
31005;BME280;17676;52.254;4.490;2023-07-20T12:03:22;101483.28;;;26.88;100.00
31005;BME280;17676;52.254;4.490;2023-07-20T12:05:47;101485.66;;;26.34;100.00
31005;BME280;17676;52.254;4.490;2023-07-20T12:08:15;101492.25;;;26.19;100.00
31005;BME280;17676;52.254;4.490;2023-07-20T12:10:41;101489.28;;;26.11;100.00
31005;BME280;17676;52.254;4.490;2023-07-20T12:13:10;101496.78;;;25.82;100.00
31005;BME280;17676;52.254;4.490;2023-07-20T12:15:37;101488.63;;;25.67;100.00
31005;BME280;17676;52.254;4.490;2023-07-20T12:18:02;101488.34;;;25.97;100.00
31005;BME280;17676;52.254;4.490;2023-07-20T12:20:34;101486.16;;;25.65;100.00
31005;BME280;17676;52.254;4.490;2023-07-20T12:23:02;101486.00;;;25.52;100.00
31005;BME280;17676;52.254;4.490;2023-07-20T12:25:38;101480.53;;;25.42;100.00
31005;BME280;17676;52.254;4.490;2023-07-20T12:28:06;101481.34;;;25.76;100.00
31005;BME280;17676;52.254;4.490;2023-07-20T12:30:38;101480.94;;;26.11;100.00
31005;BME280;17676;52.254;4.490;2023-07-20T12:33:04;101483.69;;;25.64;100.00
31005;BME280;17676;52.254;4.490;2023-07-20T12:35:30;101480.22;;;25.15;100.00
31005;BME280;17676;52.254;4.490;2023-07-20T12:37:56;101466.53;;;25.28;100.00
31005;BME280;17676;52.254;4.490;2023-07-20T12:40:22;101474.66;;;25.15;100.00
31005;BME280;17676;52.254;4.490;2023-07-20T12:42:47;101472.19;;;25.47;100.00
31005;BME280;17676;52.254;4.490;2023-07-20T12:45:13;101467.81;;;25.41;100.00
31005;BME280;17676;52.254;4.490;2023-07-20T12:47:39;101472.72;;;25.49;100.00
31005;BME280;17676;52.254;4.490;2023-07-20T12:50:06;101474.16;;;25.70;100.00
31005;BME280;17676;52.254;4.490;2023-07-20T12:52:36;101470.97;;;25.58;100.00
31005;BME280;17676;52.254;4.490;2023-07-20T12:55:02;101479.41;;;25.09;100.00
31005;BME280;17676;52.254;4.490;2023-07-20T12:57:27;101481.28;;;25.19;100.00
31005;BME280;17676;52.254;4.490;2023-07-20T12:59:53;101470.94;;;24.96;100.00